createdAt,value
2023-05-20T00:00:01.706Z,2.50
2023-05-20T00:02:29.963Z,2.40
2023-05-20T00:04:57.869Z,2.38
2023-05-20T00:07:26.325Z,2.95
2023-05-20T00:09:54.793Z,2.15
2023-05-20T00:12:22.657Z,2.45
2023-05-20T00:14:52.540Z,2.35
2023-05-20T00:17:21.544Z,2.40
2023-05-20T00:19:49.273Z,2.65
2023-05-20T00:22:16.998Z,2.63
2023-05-20T00:24:44.712Z,2.22
2023-05-20T00:27:12.845Z,2.88
2023-05-20T00:29:40.849Z,2.50
2023-05-20T00:32:10.998Z,2.78
2023-05-20T00:34:38.943Z,2.30
2023-05-20T00:37:07.151Z,2.28
2023-05-20T00:39:34.862Z,2.63
2023-05-20T00:42:03.573Z,2.50
2023-05-20T00:44:31.648Z,3.05
2023-05-20T00:46:59.980Z,2.72
2023-05-20T00:49:29.846Z,2.50
2023-05-20T00:51:58.166Z,2.25
2023-05-20T00:54:26.921Z,2.78
2023-05-20T00:56:55.869Z,2.65
2023-05-20T00:59:24.389Z,2.78
2023-05-20T01:01:53.232Z,2.70
2023-05-20T01:04:21.975Z,2.55
2023-05-20T01:06:51.595Z,2.45
2023-05-20T01:09:20.227Z,2.67
2023-05-20T01:11:52.981Z,2.50
2023-05-20T01:14:25.068Z,2.50
2023-05-20T01:16:58.342Z,2.83
2023-05-20T01:19:34.100Z,2.47
2023-05-20T01:22:06.856Z,2.67
2023-05-20T01:24:36.308Z,2.92
2023-05-20T01:27:05.492Z,2.80
2023-05-20T01:29:36.889Z,2.97
2023-05-20T01:32:09.024Z,3.25
2023-05-20T01:34:39.455Z,2.80
2023-05-20T01:37:09.284Z,3.10
2023-05-20T01:39:42.650Z,2.60
2023-05-20T01:42:11.503Z,2.83
2023-05-20T01:44:39.540Z,3.00
2023-05-20T01:47:08.920Z,2.88
2023-05-20T01:49:37.320Z,2.95
2023-05-20T01:52:06.560Z,2.75
2023-05-20T01:54:35.018Z,2.72
2023-05-20T01:57:04.421Z,2.60
2023-05-20T01:59:32.531Z,3.03
2023-05-20T02:02:01.640Z,2.72
2023-05-20T02:04:29.485Z,2.55
2023-05-20T02:06:57.272Z,2.67
2023-05-20T02:09:25.069Z,2.65
2023-05-20T02:11:53.686Z,2.90
2023-05-20T02:14:23.052Z,3.03
2023-05-20T02:16:51.029Z,2.88
2023-05-20T02:19:23.803Z,2.70
2023-05-20T02:21:52.541Z,2.85
2023-05-20T02:24:21.288Z,3.03
2023-05-20T02:26:51.145Z,2.60
2023-05-20T02:29:20.844Z,3.10
2023-05-20T02:31:52.548Z,2.70
2023-05-20T02:34:20.916Z,3.25
2023-05-20T02:36:48.935Z,3.33
2023-05-20T02:39:17.040Z,3.03
2023-05-20T02:41:45.417Z,3.05
2023-05-20T02:44:13.649Z,3.38
2023-05-20T02:46:41.633Z,3.10
2023-05-20T02:49:10.850Z,3.05
2023-05-20T02:51:39.136Z,2.90
2023-05-20T02:54:07.031Z,3.17
2023-05-20T02:56:34.823Z,3.40
2023-05-20T02:59:03.609Z,3.63
2023-05-20T03:01:31.518Z,3.50
2023-05-20T03:03:59.505Z,3.67
2023-05-20T03:06:30.106Z,3.08
2023-05-20T03:08:58.264Z,3.28
2023-05-20T03:11:26.850Z,3.20
2023-05-20T03:13:54.667Z,3.20
2023-05-20T03:16:22.815Z,3.28
2023-05-20T03:18:50.768Z,3.30
2023-05-20T03:21:18.617Z,3.30
2023-05-20T03:23:48.633Z,3.10
2023-05-20T03:26:16.864Z,3.13
2023-05-20T03:28:44.789Z,3.45
2023-05-20T03:31:12.707Z,3.28
2023-05-20T03:33:40.705Z,3.10
2023-05-20T03:36:08.846Z,3.90
2023-05-20T03:38:36.720Z,3.20
2023-05-20T03:41:06.098Z,3.45
2023-05-20T03:43:34.867Z,3.25
2023-05-20T03:46:02.634Z,3.30
2023-05-20T03:48:30.414Z,3.30
2023-05-20T03:50:58.335Z,3.85
2023-05-20T03:53:26.530Z,3.42
2023-05-20T03:55:54.508Z,3.30
2023-05-20T03:58:23.969Z,3.20
2023-05-20T04:00:51.994Z,3.50
2023-05-20T04:03:20.753Z,3.50
2023-05-20T04:05:49.883Z,3.67
2023-05-20T04:08:22.030Z,3.63
2023-05-20T04:10:50.001Z,3.40
2023-05-20T04:13:18.797Z,3.13
2023-05-20T04:15:48.421Z,3.47
2023-05-20T04:18:16.206Z,3.95
2023-05-20T04:20:44.391Z,3.60
2023-05-20T04:23:14.122Z,3.20
2023-05-20T04:25:42.495Z,3.70
2023-05-20T04:28:10.701Z,3.92
2023-05-20T04:30:38.856Z,3.40
2023-05-20T04:33:08.493Z,3.65
2023-05-20T04:35:37.687Z,3.90
2023-05-20T04:38:07.440Z,3.47
2023-05-20T04:40:35.696Z,4.25
2023-05-20T04:43:04.173Z,3.78
2023-05-20T04:45:33.692Z,3.85
2023-05-20T04:48:01.779Z,3.58
2023-05-20T04:50:31.094Z,3.80
2023-05-20T04:52:59.152Z,3.67
2023-05-20T04:55:30.054Z,3.63
2023-05-20T04:57:58.237Z,3.20
2023-05-20T05:00:26.174Z,4.07
2023-05-20T05:02:54.922Z,3.90
2023-05-20T05:05:23.223Z,4.32
2023-05-20T05:07:52.423Z,3.78
2023-05-20T05:10:22.192Z,4.13
2023-05-20T05:12:49.949Z,3.92
2023-05-20T05:15:17.843Z,3.35
2023-05-20T05:17:46.177Z,3.80
2023-05-20T05:20:14.871Z,4.10
2023-05-20T05:22:43.387Z,4.10
2023-05-20T05:25:13.559Z,3.90
2023-05-20T05:27:41.571Z,3.85
2023-05-20T05:30:11.238Z,3.70
2023-05-20T05:32:39.740Z,4.07
2023-05-20T05:35:08.454Z,4.35
2023-05-20T05:37:36.593Z,3.83
2023-05-20T05:40:05.983Z,4.13
2023-05-20T05:42:37.245Z,4.20
2023-05-20T05:45:14.733Z,4.03
2023-05-20T05:47:47.188Z,4.15
2023-05-20T05:50:17.501Z,4.78
2023-05-20T05:52:45.745Z,4.18
2023-05-20T05:55:13.868Z,4.10
2023-05-20T05:57:44.592Z,3.85
2023-05-20T06:00:16.744Z,4.47
2023-05-20T06:02:47.954Z,4.40
2023-05-20T06:05:29.897Z,4.55
2023-05-20T06:07:58.493Z,4.65
2023-05-20T06:10:27.026Z,4.60
2023-05-20T06:12:57.345Z,4.35
2023-05-20T06:15:26.659Z,4.38
2023-05-20T06:17:54.521Z,4.95
2023-05-20T06:20:22.443Z,4.43
2023-05-20T06:22:50.355Z,4.68
2023-05-20T06:25:22.926Z,4.30
2023-05-20T06:27:51.750Z,4.75
2023-05-20T06:30:22.344Z,4.75
2023-05-20T06:32:50.677Z,3.97
2023-05-20T06:35:21.314Z,4.53
2023-05-20T06:37:49.365Z,4.70
2023-05-20T06:40:18.840Z,4.28
2023-05-20T06:42:46.688Z,5.00
2023-05-20T06:45:14.847Z,4.78
2023-05-20T06:47:49.370Z,4.82
2023-05-20T06:50:17.650Z,4.72
2023-05-20T06:52:46.504Z,5.22
2023-05-20T06:55:15.539Z,5.07
2023-05-20T06:57:44.969Z,5.07
2023-05-20T07:00:15.006Z,5.20
2023-05-20T07:02:43.921Z,4.68
2023-05-20T07:05:15.305Z,5.57
2023-05-20T07:07:43.499Z,5.00
2023-05-20T07:10:12.084Z,5.32
2023-05-20T07:12:40.291Z,5.00
2023-05-20T07:15:09.524Z,5.30
2023-05-20T07:17:37.355Z,5.07
2023-05-20T07:20:08.175Z,5.10
2023-05-20T07:22:38.663Z,5.50
2023-05-20T07:25:21.638Z,5.00
2023-05-20T07:27:50.309Z,5.07
2023-05-20T07:30:18.134Z,5.38
2023-05-20T07:32:54.210Z,4.97
2023-05-20T07:35:22.015Z,4.97
2023-05-20T07:37:51.085Z,5.15
2023-05-20T07:40:19.585Z,5.35
2023-05-20T07:42:47.408Z,5.00
2023-05-20T07:45:16.057Z,5.10
2023-05-20T07:47:44.246Z,5.45
2023-05-20T07:50:12.613Z,5.32
2023-05-20T07:52:55.399Z,5.10
2023-05-20T07:55:27.007Z,5.80
2023-05-20T07:57:56.237Z,5.00
2023-05-20T08:00:25.370Z,4.60
2023-05-20T08:02:53.330Z,4.97
2023-05-20T08:05:29.272Z,4.85
2023-05-20T08:08:00.139Z,4.70
2023-05-20T08:10:32.353Z,4.88
2023-05-20T08:13:00.157Z,5.60
2023-05-20T08:15:27.880Z,5.28
2023-05-20T08:17:58.083Z,5.85
2023-05-20T08:20:28.012Z,4.88
2023-05-20T08:22:57.685Z,5.43
2023-05-20T08:25:25.543Z,5.50
2023-05-20T08:27:55.070Z,5.50
2023-05-20T08:30:22.870Z,5.53
2023-05-20T08:32:50.762Z,27.27
2023-05-20T08:35:19.027Z,16.65
2023-05-20T08:37:47.099Z,5.90
2023-05-20T08:40:16.048Z,5.75
2023-05-20T08:42:44.447Z,5.57
2023-05-20T08:45:18.420Z,5.22
2023-05-20T08:47:47.262Z,5.20
2023-05-20T08:50:15.821Z,5.47
2023-05-20T08:52:45.628Z,5.63
2023-05-20T08:55:23.000Z,5.85
2023-05-20T08:57:51.701Z,5.70
2023-05-20T09:00:23.795Z,5.70
2023-05-20T09:02:52.176Z,5.82
2023-05-20T09:05:21.083Z,6.15
2023-05-20T09:07:49.573Z,5.78
2023-05-20T09:10:17.569Z,5.13
2023-05-20T09:12:46.127Z,5.53
2023-05-20T09:15:14.296Z,5.47
2023-05-20T09:17:43.422Z,14.88
2023-05-20T09:20:12.289Z,7.50
2023-05-20T09:22:41.050Z,6.10
2023-05-20T09:25:12.196Z,5.80
2023-05-20T09:27:41.271Z,6.22
2023-05-20T09:30:12.640Z,6.10
2023-05-20T09:32:41.046Z,6.22
2023-05-20T09:35:14.422Z,5.68
2023-05-20T09:37:44.281Z,6.07
2023-05-20T09:40:15.266Z,5.40
2023-05-20T09:42:49.257Z,5.80
2023-05-20T09:45:17.315Z,6.03
2023-05-20T09:47:47.590Z,5.65
2023-05-20T09:50:17.270Z,5.45
2023-05-20T09:52:45.408Z,6.10
2023-05-20T09:55:13.161Z,6.13
2023-05-20T09:57:41.163Z,5.75
2023-05-20T10:00:10.962Z,5.47
2023-05-20T10:02:44.888Z,5.40
2023-05-20T10:05:18.646Z,5.90
2023-05-20T10:08:20.012Z,5.65
2023-05-20T10:10:53.794Z,5.32
2023-05-20T10:13:47.636Z,5.63
2023-05-20T10:16:30.111Z,5.85
2023-05-20T10:19:06.898Z,5.60
2023-05-20T10:21:38.930Z,5.90
2023-05-20T10:24:08.620Z,10.55
2023-05-20T10:26:37.636Z,5.63
2023-05-20T10:29:16.869Z,5.60
2023-05-20T10:31:51.218Z,6.00
2023-05-20T10:34:20.558Z,5.32
2023-05-20T10:37:00.435Z,5.47
2023-05-20T10:39:29.618Z,5.97
2023-05-20T10:42:08.445Z,5.43
2023-05-20T10:44:44.679Z,5.50
2023-05-20T10:49:47.534Z,5.97
2023-05-20T10:52:18.393Z,6.22
2023-05-20T10:54:50.938Z,5.70
2023-05-20T10:57:19.685Z,6.05
2023-05-20T10:59:48.718Z,6.15
2023-05-20T11:02:18.017Z,6.00
2023-05-20T11:04:47.422Z,5.85
2023-05-20T11:07:26.636Z,5.72
2023-05-20T11:09:54.431Z,5.75
2023-05-20T11:12:23.168Z,6.03
2023-05-20T11:14:51.531Z,5.78
2023-05-20T11:17:20.203Z,6.10
2023-05-20T11:19:49.879Z,5.55
2023-05-20T11:22:19.290Z,5.80
2023-05-20T11:24:47.682Z,6.22
2023-05-20T11:27:15.711Z,6.32
2023-05-20T11:29:43.827Z,6.57
2023-05-20T11:32:13.274Z,6.40
2023-05-20T11:34:42.693Z,6.38
2023-05-20T11:37:11.886Z,6.38
2023-05-20T11:39:41.501Z,6.28
2023-05-20T11:42:09.266Z,6.38
2023-05-20T11:44:37.053Z,6.43
2023-05-20T11:47:05.487Z,5.60
2023-05-20T11:49:42.389Z,6.10
2023-05-20T11:52:11.750Z,6.10
2023-05-20T11:54:42.846Z,6.50
2023-05-20T11:57:12.611Z,6.63
2023-05-20T11:59:40.626Z,5.95
2023-05-20T12:02:08.707Z,6.43
2023-05-20T12:04:36.599Z,6.57
2023-05-20T12:07:07.011Z,6.45
2023-05-20T12:09:35.029Z,6.38
2023-05-20T12:12:05.660Z,6.10
2023-05-20T12:14:33.603Z,6.60
2023-05-20T12:17:01.384Z,6.10
2023-05-20T12:19:29.334Z,7.15
2023-05-20T12:21:57.164Z,7.25
2023-05-20T12:24:24.899Z,7.05
2023-05-20T12:26:52.778Z,6.70
2023-05-20T12:29:22.305Z,6.68
2023-05-20T12:31:50.049Z,6.90
2023-05-20T12:34:17.819Z,7.18
2023-05-20T12:36:46.650Z,6.45
2023-05-20T12:39:15.019Z,6.68
2023-05-20T12:41:42.915Z,6.18
2023-05-20T12:44:11.139Z,6.50
2023-05-20T12:46:40.391Z,6.95
2023-05-20T12:49:08.755Z,6.60
2023-05-20T12:51:36.491Z,6.93
2023-05-20T12:54:04.224Z,7.10
2023-05-20T12:56:32.322Z,6.88
2023-05-20T12:59:00.011Z,6.82
2023-05-20T13:01:28.159Z,7.47
2023-05-20T13:03:57.665Z,7.43
2023-05-20T13:06:26.159Z,7.43
2023-05-20T13:08:54.179Z,7.72
2023-05-20T13:11:22.474Z,7.25
2023-05-20T13:13:50.450Z,7.55
2023-05-20T13:16:18.694Z,7.95
2023-05-20T13:18:46.553Z,8.60
2023-05-20T13:21:15.720Z,8.20
2023-05-20T13:23:43.946Z,7.57
2023-05-20T13:26:11.954Z,8.45
2023-05-20T13:28:39.781Z,7.07
2023-05-20T13:31:07.631Z,7.38
2023-05-20T13:33:35.630Z,8.10
2023-05-20T13:36:03.523Z,7.82
2023-05-20T13:38:34.023Z,7.38
2023-05-20T13:41:03.432Z,8.25
2023-05-20T13:43:33.208Z,7.45
2023-05-20T13:46:01.198Z,7.03
2023-05-20T13:48:29.327Z,7.03
2023-05-20T13:50:57.395Z,7.65
2023-05-20T13:53:25.513Z,7.85
2023-05-20T13:55:54.760Z,7.78
2023-05-20T13:58:22.587Z,7.82
2023-05-20T14:00:50.503Z,7.97
2023-05-20T14:03:18.480Z,7.70
2023-05-20T14:05:46.339Z,8.40
2023-05-20T14:08:14.304Z,7.75
2023-05-20T14:10:42.156Z,8.23
2023-05-20T14:13:11.454Z,7.70
2023-05-20T14:15:39.208Z,8.93
2023-05-20T14:18:08.004Z,7.72
2023-05-20T14:20:36.045Z,7.82
2023-05-20T14:23:04.466Z,8.02
2023-05-20T14:25:32.266Z,8.07
2023-05-20T14:27:59.960Z,8.43
2023-05-20T14:30:29.104Z,7.82
2023-05-20T14:32:57.397Z,7.80
2023-05-20T14:35:25.389Z,8.35
2023-05-20T14:37:54.019Z,8.95
2023-05-20T14:40:21.972Z,8.07
2023-05-20T14:42:49.881Z,8.27
2023-05-20T14:45:18.561Z,8.27
2023-05-20T14:47:47.823Z,8.43
2023-05-20T14:50:15.883Z,8.68
2023-05-20T14:52:43.860Z,8.68
2023-05-20T14:55:15.034Z,8.15
2023-05-20T14:57:43.414Z,8.88
2023-05-20T15:00:12.857Z,8.93
2023-05-20T15:02:40.959Z,9.55
2023-05-20T15:05:11.950Z,10.30
2023-05-20T15:07:39.857Z,9.15
2023-05-20T15:10:08.959Z,9.05
2023-05-20T15:12:36.941Z,8.88
2023-05-20T15:15:05.360Z,10.75
2023-05-20T15:17:33.146Z,9.43
2023-05-20T15:20:01.251Z,10.13
2023-05-20T15:22:30.888Z,9.70
2023-05-20T15:24:58.834Z,10.52
2023-05-20T15:27:26.656Z,8.93
2023-05-20T15:29:54.410Z,9.20
2023-05-20T15:32:22.618Z,9.25
2023-05-20T15:34:50.440Z,9.75
2023-05-20T15:37:18.282Z,9.75
2023-05-20T15:39:47.795Z,10.02
2023-05-20T15:42:18.244Z,9.35
2023-05-20T15:44:46.311Z,9.65
2023-05-20T15:47:14.242Z,9.48
2023-05-20T15:49:41.992Z,11.40
2023-05-20T15:52:09.927Z,9.70
2023-05-20T15:54:37.855Z,10.13
2023-05-20T15:57:07.392Z,10.10
2023-05-20T15:59:35.666Z,10.48
2023-05-20T16:02:03.805Z,10.20
2023-05-20T16:04:32.486Z,9.80
2023-05-20T16:07:00.954Z,10.13
2023-05-20T16:09:28.698Z,9.10
2023-05-20T16:11:57.091Z,10.27
2023-05-20T16:14:26.705Z,10.15
2023-05-20T16:16:54.565Z,10.80
2023-05-20T16:19:22.891Z,11.48
2023-05-20T16:21:50.794Z,10.82
2023-05-20T16:24:18.927Z,11.73
2023-05-20T16:26:47.130Z,11.90
2023-05-20T16:29:16.595Z,11.80
2023-05-20T16:31:47.147Z,11.20
2023-05-20T16:34:16.800Z,11.93
2023-05-20T16:36:46.460Z,10.57
2023-05-20T16:39:14.679Z,12.32
2023-05-20T16:41:42.430Z,11.57
2023-05-20T16:44:10.370Z,10.70
2023-05-20T16:46:38.445Z,10.20
2023-05-20T16:49:07.725Z,10.48
2023-05-20T16:51:35.891Z,9.68
2023-05-20T16:54:03.798Z,10.48
2023-05-20T16:56:31.714Z,10.55
2023-05-20T16:58:59.492Z,10.65
2023-05-20T17:01:29.135Z,10.32
2023-05-20T17:03:57.203Z,11.00
2023-05-20T17:06:26.365Z,10.45
2023-05-20T17:08:54.241Z,10.55
2023-05-20T17:11:22.564Z,11.05
2023-05-20T17:13:50.430Z,10.73
2023-05-20T17:16:18.768Z,11.18
2023-05-20T17:18:48.195Z,11.73
2023-05-20T17:21:20.260Z,11.18
2023-05-20T17:23:50.085Z,10.18
2023-05-20T17:26:18.062Z,10.60
2023-05-20T17:28:46.316Z,11.05
2023-05-20T17:31:14.149Z,10.30
2023-05-20T17:33:42.287Z,11.30
2023-05-20T17:36:10.467Z,10.60
2023-05-20T17:38:38.330Z,9.82
2023-05-20T17:41:07.377Z,10.48
2023-05-20T17:43:35.470Z,10.55
2023-05-20T17:46:03.304Z,10.70
2023-05-20T17:48:33.097Z,10.57
2023-05-20T17:51:00.924Z,10.77
2023-05-20T17:53:28.647Z,10.68
2023-05-20T17:55:56.496Z,10.55
2023-05-20T17:58:26.707Z,10.40
2023-05-20T18:00:54.983Z,11.07
2023-05-20T18:03:23.442Z,10.52
2023-05-20T18:05:52.277Z,10.77
2023-05-20T18:08:21.463Z,10.73
2023-05-20T18:10:49.446Z,10.52
2023-05-20T18:13:17.206Z,10.57
2023-05-20T18:15:47.021Z,10.73
2023-05-20T18:18:14.867Z,10.85
2023-05-20T18:20:42.789Z,10.90
2023-05-20T18:23:10.609Z,11.13
2023-05-20T18:25:39.514Z,11.23
2023-05-20T18:28:09.747Z,10.82
2023-05-20T18:30:38.038Z,10.57
2023-05-20T18:33:07.483Z,10.40
2023-05-20T18:35:36.191Z,10.82
2023-05-20T18:38:04.011Z,11.35
2023-05-20T18:40:31.998Z,10.27
2023-05-20T18:42:59.988Z,9.90
2023-05-20T18:45:30.183Z,10.52
2023-05-20T18:47:59.782Z,10.45
2023-05-20T18:50:29.040Z,10.73
2023-05-20T18:52:57.384Z,11.07
2023-05-20T18:55:25.972Z,11.57
2023-05-20T18:57:53.806Z,11.05
2023-05-20T19:00:21.782Z,11.70
2023-05-20T19:02:49.555Z,11.50
2023-05-20T19:05:17.597Z,10.95
2023-05-20T19:07:46.868Z,11.98
2023-05-20T19:10:15.170Z,11.50
2023-05-20T19:12:45.020Z,12.00
2023-05-20T19:15:14.585Z,12.02
2023-05-20T19:17:42.422Z,11.88
2023-05-20T19:20:11.213Z,12.15
2023-05-20T19:22:39.492Z,11.82
2023-05-20T19:25:09.364Z,12.68
2023-05-20T19:27:37.159Z,12.60
2023-05-20T19:30:05.189Z,12.93
2023-05-20T19:32:33.021Z,13.10
2023-05-20T19:35:01.281Z,12.57
2023-05-20T19:37:29.700Z,13.60
2023-05-20T19:39:58.054Z,13.05
2023-05-20T19:42:27.511Z,13.27
2023-05-20T19:44:55.692Z,13.57
2023-05-20T19:47:23.516Z,13.80
2023-05-20T19:49:51.553Z,13.40
2023-05-20T19:52:20.142Z,13.85
2023-05-20T19:54:48.483Z,14.65
2023-05-20T19:57:16.577Z,14.13
2023-05-20T19:59:46.421Z,14.07
2023-05-20T20:02:14.766Z,13.73
2023-05-20T20:04:44.590Z,13.98
2023-05-20T20:07:12.600Z,14.48
2023-05-20T20:09:40.797Z,14.50
2023-05-20T20:12:09.299Z,14.43
2023-05-20T20:14:37.035Z,14.13
2023-05-20T20:17:06.941Z,14.15
2023-05-20T20:19:34.859Z,15.13
2023-05-20T20:22:02.662Z,14.80
2023-05-20T20:24:30.532Z,14.07
2023-05-20T20:26:58.349Z,15.05
2023-05-20T20:29:26.288Z,15.95
2023-05-20T20:31:55.182Z,15.45
2023-05-20T20:34:24.500Z,16.48
2023-05-20T20:36:53.185Z,14.88
2023-05-20T20:39:22.659Z,14.65
2023-05-20T20:41:51.369Z,15.57
2023-05-20T20:44:22.382Z,15.40
2023-05-20T20:46:51.407Z,14.93
2023-05-20T20:49:19.689Z,16.00
2023-05-20T20:51:50.256Z,14.82
2023-05-20T20:54:17.995Z,16.08
2023-05-20T20:56:47.304Z,16.17
2023-05-20T20:59:16.042Z,16.38
2023-05-20T21:01:45.388Z,16.40
2023-05-20T21:04:14.331Z,16.75
2023-05-20T21:06:46.053Z,17.27
2023-05-20T21:09:16.167Z,17.00
2023-05-20T21:11:45.274Z,16.33
2023-05-20T21:14:14.002Z,16.85
2023-05-20T21:16:43.155Z,17.45
2023-05-20T21:19:11.045Z,17.77
2023-05-20T21:21:38.930Z,17.92
2023-05-20T21:24:07.549Z,17.33
2023-05-20T21:26:37.336Z,17.40
2023-05-20T21:29:06.051Z,17.08
2023-05-20T21:31:33.984Z,18.30
2023-05-20T21:34:01.808Z,17.08
2023-05-20T21:36:29.516Z,18.15
2023-05-20T21:38:58.495Z,17.63
2023-05-20T21:41:27.214Z,17.90
2023-05-20T21:43:56.372Z,18.38
2023-05-20T21:46:24.193Z,18.58
2023-05-20T21:48:51.986Z,17.83
2023-05-20T21:51:19.690Z,17.63
2023-05-20T21:53:47.455Z,18.08
2023-05-20T21:56:16.169Z,18.52
2023-05-20T21:58:44.128Z,18.98
2023-05-20T22:01:13.201Z,18.42
2023-05-20T22:03:41.218Z,18.40
2023-05-20T22:06:09.189Z,18.08
2023-05-20T22:08:37.328Z,17.58
2023-05-20T22:11:07.080Z,19.02
2023-05-20T22:13:35.808Z,19.58
2023-05-20T22:16:04.912Z,18.08
2023-05-20T22:18:34.961Z,18.38
2023-05-20T22:21:02.753Z,17.63
2023-05-20T22:23:30.579Z,17.58
2023-05-20T22:25:58.340Z,17.60
2023-05-20T22:28:26.252Z,18.85
2023-05-20T22:30:54.646Z,17.98
2023-05-20T22:33:24.401Z,17.58
2023-05-20T22:35:54.481Z,17.80
2023-05-20T22:38:22.266Z,17.70
2023-05-20T22:40:50.361Z,17.98
2023-05-20T22:43:18.165Z,17.67
2023-05-20T22:45:45.922Z,18.45
2023-05-20T22:48:13.758Z,18.00
2023-05-20T22:50:42.236Z,18.52
2023-05-20T22:53:11.531Z,17.83
2023-05-20T22:55:39.762Z,18.20
2023-05-20T22:58:08.563Z,19.10
2023-05-20T23:00:37.126Z,18.60
2023-05-20T23:03:04.983Z,19.55
2023-05-20T23:05:32.926Z,17.55
2023-05-20T23:08:01.378Z,17.55
2023-05-20T23:10:30.592Z,18.13
2023-05-20T23:12:58.653Z,17.15
2023-05-20T23:15:27.805Z,17.80
2023-05-20T23:17:55.693Z,18.02
2023-05-20T23:20:23.800Z,18.10
2023-05-20T23:22:51.776Z,18.42
2023-05-20T23:25:19.645Z,19.27
2023-05-20T23:27:48.822Z,18.25
2023-05-20T23:30:17.056Z,18.80
2023-05-20T23:32:45.563Z,17.70
2023-05-20T23:35:14.330Z,17.27
2023-05-20T23:37:42.501Z,17.90
2023-05-20T23:40:11.708Z,17.75
2023-05-20T23:42:40.076Z,18.27
2023-05-20T23:45:11.352Z,17.92
2023-05-20T23:47:39.225Z,17.73
2023-05-20T23:50:08.451Z,18.27
2023-05-20T23:52:37.071Z,18.08
2023-05-20T23:55:05.886Z,18.48
2023-05-20T23:57:33.966Z,18.15
